Time;durP1;ratioP1;P1;durP2;ratioP2;P2;SDS_P1;SDS_P2;PMS_P1;PMS_P2;Temp;Humidity;BMP_temperature;BMP_pressure;BME280_temperature;BME280_humidity;BME280_pressure;Samples;Min_cycle;Max_cycle;Signal;HPM_P1;HPM_P2
2022/04/09 00:00:21;;;;;;;;;;;;;;;16.94;58.30;98173.13;4432518;32;19995;-80
2022/04/09 00:02:48;;;;;;;;;;;;;;;16.66;59.33;98181.94;4418610;32;20023;-84
2022/04/09 00:05:15;;;;;;;;;;;;;;;16.67;59.36;98167.97;4446125;32;20377;-82
2022/04/09 00:07:42;;;;;;;;;;;;;;;16.94;58.30;98165.28;4432114;32;19996;-82
2022/04/09 00:10:11;;;;;;;;;;;;;;;17.03;57.90;98154.50;4446200;32;19970;-83
2022/04/09 00:12:38;;;;;;;;;;;;;;;17.02;57.95;98152.81;4431134;32;20319;-80
2022/04/09 00:15:05;;;;;;;;;;;;;;;16.97;57.93;98159.94;4417608;32;20046;-73
2022/04/09 00:17:37;;;;;;;;;;;;;;;16.96;58.46;98147.78;4444498;32;19998;-78
2022/04/09 00:20:04;;;;;;;;;;;;;;;16.82;58.95;98139.63;4431730;32;19992;-74
2022/04/09 00:22:31;;;;;;;;;;;;;;;16.95;58.19;98131.28;4442893;32;20008;-76
2022/04/09 00:24:58;;;;;;;;;;;;;;;16.90;58.37;98130.56;4442860;32;20009;-77
2022/04/09 00:27:29;;;;;;;;;;;;;;;16.85;58.78;98118.59;4445872;32;19985;-77
2022/04/09 00:29:56;;;;;;;;;;;;;;;16.91;58.58;98123.56;4445577;32;20326;-78
2022/04/09 00:32:23;;;;;;;;;;;;;;;16.71;59.23;98127.75;4446066;32;20832;-78
2022/04/09 00:34:49;;;;;;;;;;;;;;;16.71;59.22;98114.69;4435102;32;20004;-80
2022/04/09 00:37:16;;;;;;;;;;;;;;;16.72;59.22;98120.78;4445685;32;20850;-79
2022/04/09 00:39:43;;;;;;;;;;;;;;;16.83;59.01;98112.56;4430990;32;20037;-77
2022/04/09 00:42:14;;;;;;;;;;;;;;;16.94;58.72;98110.41;4432128;32;20083;-81
2022/04/09 00:44:41;;;;;;;;;;;;;;;16.76;59.27;98113.72;4446845;32;19981;-80
2022/04/09 00:47:09;;;;;;;;;;;;;;;16.88;59.00;98113.25;4447887;32;20326;-79
2022/04/09 00:49:36;;;;;;;;;;;;;;;16.85;59.24;98118.59;4433338;32;19981;-79
2022/04/09 00:52:03;;;;;;;;;;;;;;;16.77;59.35;98115.41;4432849;32;19985;-76
2022/04/09 00:54:32;;;;;;;;;;;;;;;16.83;59.01;98126.50;4439497;32;19993;-77
2022/04/09 00:56:59;;;;;;;;;;;;;;;16.94;58.75;98144.38;4431778;32;20042;-78
2022/04/09 00:59:26;;;;;;;;;;;;;;;16.81;59.28;98148.34;4417773;32;19978;-79
2022/04/09 01:01:54;;;;;;;;;;;;;;;16.59;59.50;98153.47;4430612;32;20005;-76
2022/04/09 01:04:22;;;;;;;;;;;;;;;16.52;59.85;98163.28;4442691;32;19985;-79
2022/04/09 01:06:49;;;;;;;;;;;;;;;16.49;59.96;98166.00;4416053;32;20023;-77
2022/04/09 01:09:16;;;;;;;;;;;;;;;16.55;59.71;98176.22;4151904;32;19985;-76
2022/04/09 01:11:43;;;;;;;;;;;;;;;16.76;58.45;98147.69;4461893;32;19981;-80
2022/04/09 01:14:10;;;;;;;;;;;;;;;16.37;59.39;98125.50;4456553;32;20037;-78
2022/04/09 01:16:37;;;;;;;;;;;;;;;16.38;59.66;98110.69;4447868;32;19985;-76
2022/04/09 01:19:04;;;;;;;;;;;;;;;16.14;60.60;98110.59;4440777;32;19995;-78
2022/04/09 01:21:31;;;;;;;;;;;;;;;15.95;61.09;98127.78;4463260;32;19989;-78
2022/04/09 01:24:01;;;;;;;;;;;;;;;15.67;62.20;98102.63;4461203;32;20040;-80
2022/04/09 01:26:27;;;;;;;;;;;;;;;16.03;61.06;98097.09;4460569;32;20000;-77
2022/04/09 01:28:54;;;;;;;;;;;;;;;15.24;63.06;98122.19;4462246;32;20007;-76
2022/04/09 01:31:21;;;;;;;;;;;;;;;15.23;63.33;98128.31;4460546;32;20302;-80
2022/04/09 01:33:48;;;;;;;;;;;;;;;15.64;62.09;98143.59;4462905;32;19989;-80
2022/04/09 01:36:15;;;;;;;;;;;;;;;15.95;60.78;98159.09;4463299;32;20064;-79
2022/04/09 01:38:43;;;;;;;;;;;;;;;15.94;61.06;98165.25;4462705;32;20004;-76
2022/04/09 01:41:10;;;;;;;;;;;;;;;15.45;62.69;98161.56;4461054;32;20004;-77
2022/04/09 01:43:40;;;;;;;;;;;;;;;14.80;64.77;98157.34;4461728;32;20279;-75
2022/04/09 01:46:08;;;;;;;;;;;;;;;15.00;63.91;98159.41;4456487;32;19982;-76
2022/04/09 01:48:35;;;;;;;;;;;;;;;15.25;63.56;98165.63;4447396;32;19973;-75
2022/04/09 01:51:03;;;;;;;;;;;;;;;15.48;62.54;98170.13;4446963;32;19997;-78
2022/04/09 01:53:30;;;;;;;;;;;;;;;15.04;64.35;98161.03;4442462;32;20044;-75
2022/04/09 01:55:57;;;;;;;;;;;;;;;15.18;63.86;98153.66;4124648;32;10004354;-77
2022/04/09 01:58:24;;;;;;;;;;;;;;;15.06;64.24;98135.75;4415634;32;19982;-81
2022/04/09 02:00:57;;;;;;;;;;;;;;;14.15;66.86;98142.59;4400755;32;20023;-78
2022/04/09 02:03:26;;;;;;;;;;;;;;;14.60;66.05;98143.13;4415272;32;19986;-80
2022/04/09 02:05:53;;;;;;;;;;;;;;;13.99;68.63;98136.06;4416584;32;19999;-79
2022/04/09 02:08:20;;;;;;;;;;;;;;;14.36;67.82;98135.97;4415850;32;19974;-81
2022/04/09 02:10:48;;;;;;;;;;;;;;;14.60;66.34;98129.28;4416493;32;20224;-79
2022/04/09 02:13:18;;;;;;;;;;;;;;;14.13;67.83;98123.53;4415453;32;20050;-76
2022/04/09 02:15:45;;;;;;;;;;;;;;;13.93;69.00;98137.91;4412033;32;20024;-81
2022/04/09 02:18:12;;;;;;;;;;;;;;;14.24;68.41;98134.53;4416188;32;19969;-82
2022/04/09 02:20:39;;;;;;;;;;;;;;;14.00;69.24;98127.34;4416410;32;20061;-79
2022/04/09 02:23:06;;;;;;;;;;;;;;;14.18;68.26;98126.91;4416126;32;20327;-76
2022/04/09 02:25:33;;;;;;;;;;;;;;;13.75;70.35;98119.31;4415609;32;19990;-80
2022/04/09 02:28:00;;;;;;;;;;;;;;;13.56;71.16;98111.09;4409839;32;20315;-80
2022/04/09 02:30:27;;;;;;;;;;;;;;;13.73;71.20;98119.34;4416393;32;19992;-79
2022/04/09 02:32:54;;;;;;;;;;;;;;;13.40;72.67;98132.28;4402468;32;20039;-82
2022/04/09 02:35:26;;;;;;;;;;;;;;;13.65;71.96;98135.13;4415235;32;20699;-81
2022/04/09 02:37:54;;;;;;;;;;;;;;;13.25;73.78;98137.81;4444339;32;19985;-75
2022/04/09 02:40:21;;;;;;;;;;;;;;;13.74;71.92;98147.06;4449658;32;19997;-78
2022/04/09 02:42:48;;;;;;;;;;;;;;;14.09;70.66;98142.75;4082152;32;10009136;-82
2022/04/09 02:45:15;;;;;;;;;;;;;;;13.86;71.65;98151.97;4442019;32;19988;-81
2022/04/09 02:47:42;;;;;;;;;;;;;;;14.03;71.13;98161.09;4431030;32;19986;-84
2022/04/09 02:50:10;;;;;;;;;;;;;;;13.87;71.54;98164.06;4445106;32;20042;-78
2022/04/09 02:52:39;;;;;;;;;;;;;;;13.86;72.08;98172.78;4429744;32;20016;-75
2022/04/09 02:55:06;;;;;;;;;;;;;;;14.03;71.05;98168.91;4420278;32;20036;-78
2022/04/09 02:57:34;;;;;;;;;;;;;;;13.59;73.16;98163.00;4446665;32;19997;-77
2022/04/09 03:00:02;;;;;;;;;;;;;;;13.98;71.81;98155.19;4432568;32;20033;-77
2022/04/09 03:02:28;;;;;;;;;;;;;;;14.16;70.03;98165.09;4446217;32;20022;-79
2022/04/09 03:04:56;;;;;;;;;;;;;;;14.16;70.56;98170.31;4428587;32;20017;-79
2022/04/09 03:07:23;;;;;;;;;;;;;;;13.42;72.90;98172.06;4431317;32;20056;-81
2022/04/09 03:09:50;;;;;;;;;;;;;;;14.01;71.26;98170.69;4446927;32;19981;-76
2022/04/09 03:12:17;;;;;;;;;;;;;;;13.89;71.28;98167.50;4462116;32;20046;-78
2022/04/09 03:14:45;;;;;;;;;;;;;;;13.91;71.22;98160.53;4449083;32;19993;-80
2022/04/09 03:17:12;;;;;;;;;;;;;;;14.09;70.41;98158.34;4446970;32;19985;-76
2022/04/09 03:19:39;;;;;;;;;;;;;;;13.82;71.11;98160.75;4459608;32;20087;-79
2022/04/09 03:22:07;;;;;;;;;;;;;;;13.98;69.91;98182.03;4448154;32;20035;-76
2022/04/09 03:24:35;;;;;;;;;;;;;;;14.05;70.25;98195.75;4462607;32;19998;-79
2022/04/09 03:27:02;;;;;;;;;;;;;;;14.29;69.40;98187.31;4461488;32;19984;-80
2022/04/09 03:29:30;;;;;;;;;;;;;;;14.25;69.03;98179.63;4461932;32;20021;-81
2022/04/09 03:31:58;;;;;;;;;;;;;;;14.15;68.96;98179.87;4462528;32;19984;-83
2022/04/09 03:34:25;;;;;;;;;;;;;;;14.65;67.20;98179.47;4447558;32;19984;-79
2022/04/09 03:36:52;;;;;;;;;;;;;;;14.17;68.42;98170.28;4448042;32;20562;-77
2022/04/09 03:39:19;;;;;;;;;;;;;;;14.67;66.93;98162.06;4462139;32;20745;-76
2022/04/09 03:41:46;;;;;;;;;;;;;;;14.93;65.47;98147.44;4450309;32;19989;-79
2022/04/09 03:44:34;;;;;;;;;;;;;;;15.03;65.34;98170.59;4438115;32;19992;-78
2022/04/09 03:47:01;;;;;;;;;;;;;;;14.80;66.10;98179.03;4446280;32;20029;-78
2022/04/09 03:49:29;;;;;;;;;;;;;;;14.83;65.72;98173.75;4431845;32;20018;-80
2022/04/09 03:51:57;;;;;;;;;;;;;;;15.19;63.95;98164.91;4445179;32;20004;-75
2022/04/09 03:54:25;;;;;;;;;;;;;;;15.30;63.21;98168.91;4445807;32;20007;-81
2022/04/09 03:56:53;;;;;;;;;;;;;;;15.38;62.68;98154.78;4445642;32;19985;-78
2022/04/09 03:59:23;;;;;;;;;;;;;;;15.48;62.50;98164.91;4432814;32;19995;-81
2022/04/09 04:01:50;;;;;;;;;;;;;;;15.60;61.90;98161.06;4445644;32;19981;-81
2022/04/09 04:04:19;;;;;;;;;;;;;;;15.59;61.82;98155.00;4446557;32;20807;-75
2022/04/09 04:06:48;;;;;;;;;;;;;;;15.66;61.79;98160.88;4446176;32;19984;-80
2022/04/09 04:09:16;;;;;;;;;;;;;;;15.63;62.19;98155.75;4445240;32;19985;-79
2022/04/09 04:11:45;;;;;;;;;;;;;;;15.59;62.10;98146.31;4430663;32;19991;-82
2022/04/09 04:14:12;;;;;;;;;;;;;;;15.71;60.98;98138.12;4446390;32;19989;-79
2022/04/09 04:16:38;;;;;;;;;;;;;;;15.59;61.76;98133.28;4445305;32;20382;-78
2022/04/09 04:19:06;;;;;;;;;;;;;;;15.65;61.29;98142.66;4432222;32;20354;-81
2022/04/09 04:21:33;;;;;;;;;;;;;;;15.68;60.79;98142.59;4446351;32;19989;-80
2022/04/09 04:24:00;;;;;;;;;;;;;;;15.66;60.23;98140.00;4445338;32;20913;-76
2022/04/09 04:26:27;;;;;;;;;;;;;;;15.88;59.52;98134.13;4446204;32;20008;-78
2022/04/09 04:28:55;;;;;;;;;;;;;;;15.85;59.60;98126.41;4445895;32;19985;-79
2022/04/09 04:31:21;;;;;;;;;;;;;;;15.70;59.82;98120.78;4445304;32;20008;-83
2022/04/09 04:33:49;;;;;;;;;;;;;;;15.74;59.84;98111.97;4446089;32;19993;-77
2022/04/09 04:36:16;;;;;;;;;;;;;;;15.68;60.30;98121.75;4445884;32;20003;-78
2022/04/09 04:38:43;;;;;;;;;;;;;;;15.64;60.34;98120.97;4445341;32;20061;-81
2022/04/09 04:41:10;;;;;;;;;;;;;;;15.66;60.12;98118.28;4444888;32;19985;-74
2022/04/09 04:43:37;;;;;;;;;;;;;;;15.59;60.71;98118.47;4440442;32;20019;-75
2022/04/09 04:46:05;;;;;;;;;;;;;;;15.77;59.60;98101.41;4445777;32;19990;-79
2022/04/09 04:48:33;;;;;;;;;;;;;;;15.68;60.04;98088.69;4445338;32;20034;-75
2022/04/09 04:51:00;;;;;;;;;;;;;;;15.58;60.39;98088.09;4445340;32;19974;-83
2022/04/09 04:53:27;;;;;;;;;;;;;;;15.51;60.61;98078.78;4444882;32;19988;-76
2022/04/09 04:55:55;;;;;;;;;;;;;;;15.26;61.28;98067.41;4445231;32;19997;-81
2022/04/09 04:58:22;;;;;;;;;;;;;;;14.84;62.83;98066.06;4445661;32;19996;-82
2022/04/09 05:00:50;;;;;;;;;;;;;;;14.30;64.79;98038.09;4445708;32;19970;-77
2022/04/09 05:03:17;;;;;;;;;;;;;;;14.45;64.88;98030.72;4430771;32;20282;-80
2022/04/09 05:05:45;;;;;;;;;;;;;;;14.18;66.03;98028.00;4445087;32;19999;-77
2022/04/09 05:08:12;;;;;;;;;;;;;;;14.02;66.91;98042.34;4445397;32;19980;-79
2022/04/09 05:10:39;;;;;;;;;;;;;;;13.88;67.67;98043.56;4441204;32;19997;-79
2022/04/09 05:13:06;;;;;;;;;;;;;;;13.86;67.15;98034.94;4138096;32;10000882;-76
2022/04/09 05:15:35;;;;;;;;;;;;;;;13.55;68.46;98021.00;4445742;32;20004;-78
2022/04/09 05:18:02;;;;;;;;;;;;;;;13.47;68.87;98024.66;4442982;32;20767;-81
2022/04/09 05:20:30;;;;;;;;;;;;;;;13.28;69.54;98028.59;4443458;32;19985;-75
2022/04/09 05:22:58;;;;;;;;;;;;;;;12.84;71.20;98030.44;4416485;32;19978;-77
2022/04/09 05:25:26;;;;;;;;;;;;;;;13.09;70.16;98022.94;4444986;32;19997;-76
2022/04/09 05:27:54;;;;;;;;;;;;;;;13.13;70.11;98028.94;4431296;32;19989;-76
2022/04/09 05:30:23;;;;;;;;;;;;;;;13.16;70.44;98039.25;4446958;32;20036;-77
2022/04/09 05:32:50;;;;;;;;;;;;;;;12.98;71.15;98032.72;4446161;32;19985;-77
2022/04/09 05:35:17;;;;;;;;;;;;;;;12.94;71.41;98044.91;4447485;32;19996;-78
2022/04/09 05:37:46;;;;;;;;;;;;;;;12.81;71.79;98043.50;4111772;32;10004362;-78
2022/04/09 05:40:14;;;;;;;;;;;;;;;12.94;71.02;98039.72;4402008;32;20004;-79
2022/04/09 05:42:41;;;;;;;;;;;;;;;12.77;72.05;98031.47;4402695;32;19985;-79
2022/04/09 05:45:10;;;;;;;;;;;;;;;12.97;71.14;98050.06;4416152;32;19994;-75
2022/04/09 05:47:38;;;;;;;;;;;;;;;12.99;70.90;98053.47;4397468;32;20346;-81
2022/04/09 05:50:06;;;;;;;;;;;;;;;13.20;70.46;98061.66;4415997;32;20539;-79
2022/04/09 05:52:33;;;;;;;;;;;;;;;12.81;71.59;98069.47;4403357;32;20012;-80
2022/04/09 05:55:03;;;;;;;;;;;;;;;13.29;70.39;98071.88;4399096;32;19993;-74
2022/04/09 05:57:30;;;;;;;;;;;;;;;13.35;69.55;98082.13;4416156;32;19997;-77
2022/04/09 05:59:58;;;;;;;;;;;;;;;13.37;69.55;98075.16;4402347;32;19989;-76
2022/04/09 06:02:25;;;;;;;;;;;;;;;13.45;69.35;98073.22;4399954;32;19986;-75
2022/04/09 06:04:52;;;;;;;;;;;;;;;13.23;69.83;98077.19;4408081;32;19974;-77
2022/04/09 06:07:20;;;;;;;;;;;;;;;13.34;69.58;98090.81;4401246;32;20017;-80
2022/04/09 06:09:52;;;;;;;;;;;;;;;13.28;69.51;98070.19;4401717;32;19990;-76
2022/04/09 06:12:19;;;;;;;;;;;;;;;12.94;71.20;98086.47;4403976;32;20019;-80
2022/04/09 06:14:46;;;;;;;;;;;;;;;12.88;70.92;98071.03;4416383;32;19974;-75
2022/04/09 06:17:13;;;;;;;;;;;;;;;13.17;70.08;98083.34;4415243;32;20029;-79
2022/04/09 06:19:40;;;;;;;;;;;;;;;13.03;70.78;98095.81;4436567;32;20385;-79
2022/04/09 06:22:08;;;;;;;;;;;;;;;13.26;69.17;98097.94;4446335;32;19993;-76
2022/04/09 06:24:35;;;;;;;;;;;;;;;13.28;69.59;98080.56;4444823;32;20000;-80
2022/04/09 06:27:03;;;;;;;;;;;;;;;13.10;70.30;98083.53;4446459;32;20337;-79
2022/04/09 06:29:31;;;;;;;;;;;;;;;13.43;69.15;98077.63;4431246;32;19996;-79
2022/04/09 06:31:58;;;;;;;;;;;;;;;13.74;67.97;98069.03;4433095;32;20003;-78
2022/04/09 06:34:25;;;;;;;;;;;;;;;13.70;68.30;98077.81;4435666;32;20023;-79
2022/04/09 06:36:53;;;;;;;;;;;;;;;13.84;67.17;98074.88;4446124;32;20032;-81
2022/04/09 06:39:20;;;;;;;;;;;;;;;13.34;69.53;98079.59;4445779;32;20049;-79
2022/04/09 06:41:49;;;;;;;;;;;;;;;13.20;69.94;98082.44;4446315;32;20360;-77
2022/04/09 06:44:17;;;;;;;;;;;;;;;13.15;69.95;98073.91;4447088;32;20295;-81
2022/04/09 06:46:45;;;;;;;;;;;;;;;13.11;70.26;98083.50;4446520;32;20263;-80
2022/04/09 06:49:17;;;;;;;;;;;;;;;13.47;68.75;98100.03;4433245;32;19996;-75
2022/04/09 06:51:44;;;;;;;;;;;;;;;13.61;67.90;98098.84;4446244;32;19981;-87
2022/04/09 06:54:12;;;;;;;;;;;;;;;13.53;68.46;98095.56;4428587;32;20011;-76
2022/04/09 06:56:40;;;;;;;;;;;;;;;13.57;68.34;98094.63;4429878;32;19985;-85
2022/04/09 06:59:06;;;;;;;;;;;;;;;13.41;68.75;98086.34;4440505;32;20011;-85
2022/04/09 07:01:35;;;;;;;;;;;;;;;13.10;70.02;98081.81;4446896;32;19992;-82
2022/04/09 07:04:03;;;;;;;;;;;;;;;13.48;69.22;98104.34;4446323;32;20011;-75
2022/04/09 07:06:31;;;;;;;;;;;;;;;12.82;72.35;98112.69;4445918;32;20043;-77
2022/04/09 07:08:58;;;;;;;;;;;;;;;13.14;71.85;98103.37;4445679;32;20026;-85
2022/04/09 07:11:26;;;;;;;;;;;;;;;13.25;70.95;98086.69;4426257;32;20004;-80
2022/04/09 07:13:53;;;;;;;;;;;;;;;13.36;71.53;98099.41;4431267;32;19981;-84
2022/04/09 07:16:20;;;;;;;;;;;;;;;12.86;73.46;98123.88;4446224;32;20033;-80
2022/04/09 07:18:48;;;;;;;;;;;;;;;13.35;72.38;98316.03;4446523;32;19992;-79
2022/04/09 07:21:14;;;;;;;;;;;;;;;12.88;73.34;98319.47;4446791;32;19981;-80
2022/04/09 07:23:41;;;;;;;;;;;;;;;13.00;70.44;98304.53;4445027;32;19988;-78
2022/04/09 07:26:08;;;;;;;;;;;;;;;12.47;70.67;98293.31;4432050;32;20248;-81
2022/04/09 07:28:35;;;;;;;;;;;;;;;11.92;72.25;98325.28;4446059;32;20038;-80
2022/04/09 07:31:02;;;;;;;;;;;;;;;11.97;71.47;98323.50;4446605;32;19989;-80
2022/04/09 07:33:29;;;;;;;;;;;;;;;12.16;69.86;98307.69;4446718;32;20014;-75
2022/04/09 07:35:56;;;;;;;;;;;;;;;12.36;67.85;98304.78;4446419;32;20383;-76
2022/04/09 07:38:23;;;;;;;;;;;;;;;12.64;68.01;98302.59;4445831;32;20299;-77
2022/04/09 07:40:50;;;;;;;;;;;;;;;12.52;68.58;98296.72;4446157;32;20109;-85
2022/04/09 07:43:17;;;;;;;;;;;;;;;12.77;67.26;98306.69;4445863;32;19983;-78
2022/04/09 07:45:44;;;;;;;;;;;;;;;12.70;67.52;98289.47;4446935;32;20016;-74
2022/04/09 07:48:11;;;;;;;;;;;;;;;12.61;67.61;98287.06;4445275;32;19985;-79
2022/04/09 07:50:38;;;;;;;;;;;;;;;12.29;68.67;98288.47;4445474;32;19977;-81
2022/04/09 07:53:05;;;;;;;;;;;;;;;12.41;69.17;98288.25;4442579;32;20014;-77
2022/04/09 07:55:32;;;;;;;;;;;;;;;12.56;69.33;98287.97;4446048;32;19981;-75
2022/04/09 07:58:01;;;;;;;;;;;;;;;12.81;68.73;98282.38;4446661;32;19994;-79
2022/04/09 08:00:32;;;;;;;;;;;;;;;13.32;66.90;98269.31;4444675;32;19997;-76
2022/04/09 08:02:59;;;;;;;;;;;;;;;13.73;65.71;98260.63;4445781;32;19969;-77
2022/04/09 08:05:26;;;;;;;;;;;;;;;13.65;66.61;98272.94;4431870;32;20000;-83
2022/04/09 08:07:53;;;;;;;;;;;;;;;13.30;67.32;98271.06;4445458;32;20333;-80
2022/04/09 08:10:20;;;;;;;;;;;;;;;13.69;66.24;98268.53;4444546;32;19989;-78
2022/04/09 08:12:49;;;;;;;;;;;;;;;13.27;68.03;98271.13;4416424;32;19973;-80
2022/04/09 08:15:18;;;;;;;;;;;;;;;13.31;68.09;98270.19;4429176;32;19989;-82
2022/04/09 08:17:47;;;;;;;;;;;;;;;13.32;67.95;98274.50;4429656;32;20297;-79
2022/04/09 08:20:14;;;;;;;;;;;;;;;13.41;67.51;98269.13;4427790;32;20028;-79
2022/04/09 08:22:41;;;;;;;;;;;;;;;13.36;68.06;98286.53;4427379;32;19974;-76
2022/04/09 08:25:10;;;;;;;;;;;;;;;13.60;67.54;98280.00;4430397;32;19985;-81
2022/04/09 08:27:38;;;;;;;;;;;;;;;13.75;67.01;98278.78;4430347;32;19985;-80
2022/04/09 08:30:06;;;;;;;;;;;;;;;13.19;69.74;98288.59;4429957;32;20354;-83
2022/04/09 08:32:33;;;;;;;;;;;;;;;13.64;67.31;98285.97;4428869;32;19989;-77
2022/04/09 08:35:00;;;;;;;;;;;;;;;12.95;68.99;98287.31;4430583;32;20319;-84
2022/04/09 08:37:27;;;;;;;;;;;;;;;13.41;67.93;98279.50;4429349;32;20113;-77
2022/04/09 08:39:55;;;;;;;;;;;;;;;13.98;66.65;98285.25;4429710;32;20369;-83
2022/04/09 08:42:22;;;;;;;;;;;;;;;13.85;66.73;98290.72;4415760;32;20879;-81
2022/04/09 08:44:48;;;;;;;;;;;;;;;13.77;66.44;98287.41;4429691;32;20244;-81
2022/04/09 08:47:16;;;;;;;;;;;;;;;14.08;66.02;98294.56;4429953;32;19989;-83
2022/04/09 08:49:46;;;;;;;;;;;;;;;14.20;65.79;98296.88;4428652;32;20035;-77
2022/04/09 08:52:15;;;;;;;;;;;;;;;14.45;65.41;98293.66;4429098;32;20020;-78
2022/04/09 08:54:42;;;;;;;;;;;;;;;14.30;66.03;98302.72;4415939;32;19997;-82
2022/04/09 08:57:09;;;;;;;;;;;;;;;14.14;66.67;98312.62;4415262;32;19996;-81
2022/04/09 08:59:36;;;;;;;;;;;;;;;14.53;65.44;98310.00;4430391;32;19982;-76
2022/04/09 09:02:03;;;;;;;;;;;;;;;14.29;65.82;98322.66;4128499;32;10004197;-81
2022/04/09 09:04:30;;;;;;;;;;;;;;;14.67;64.53;98323.53;4447114;32;20023;-79
2022/04/09 09:07:15;;;;;;;;;;;;;;;14.24;66.84;98340.16;4442071;32;19990;-78
2022/04/09 09:09:42;;;;;;;;;;;;;;;14.45;65.95;98348.34;4433721;32;20005;-78
2022/04/09 09:12:12;;;;;;;;;;;;;;;14.60;65.62;98327.19;4432966;32;19990;-77
2022/04/09 09:14:44;;;;;;;;;;;;;;;13.89;66.09;98339.19;4420040;32;19985;-75
2022/04/09 09:17:11;;;;;;;;;;;;;;;14.33;64.71;98349.50;4438146;32;20004;-86
2022/04/09 09:19:42;;;;;;;;;;;;;;;14.14;64.33;98344.69;4446333;32;20005;-85
2022/04/09 09:22:09;;;;;;;;;;;;;;;14.08;64.57;98344.00;4446551;32;19999;-83
2022/04/09 09:24:36;;;;;;;;;;;;;;;13.82;62.41;98345.41;4447304;32;20348;-81
2022/04/09 09:27:03;;;;;;;;;;;;;;;13.61;63.30;98358.84;4447391;32;20022;-84
2022/04/09 09:29:31;;;;;;;;;;;;;;;13.68;62.85;98360.41;4446638;32;19989;-76
2022/04/09 09:32:02;;;;;;;;;;;;;;;13.95;61.24;98369.41;4446663;32;19988;-78
2022/04/09 09:34:29;;;;;;;;;;;;;;;13.72;62.75;98388.09;4446942;32;20031;-80
2022/04/09 09:36:56;;;;;;;;;;;;;;;13.88;62.05;98397.31;4447283;32;20008;-80
2022/04/09 09:39:23;;;;;;;;;;;;;;;13.46;63.13;98415.47;4439207;32;20415;-80
2022/04/09 09:41:51;;;;;;;;;;;;;;;13.21;64.06;98427.16;4460986;32;19976;-80
2022/04/09 09:44:21;;;;;;;;;;;;;;;12.99;63.85;98453.47;4462211;32;19992;-83
2022/04/09 09:46:49;;;;;;;;;;;;;;;12.92;64.20;98485.63;4462134;32;20332;-79
2022/04/09 09:49:17;;;;;;;;;;;;;;;12.49;62.58;98496.59;4457198;32;20011;-76
2022/04/09 09:51:44;;;;;;;;;;;;;;;12.26;61.67;98506.44;4461092;32;19981;-82
2022/04/09 09:54:13;;;;;;;;;;;;;;;11.71;62.36;98504.41;4460012;32;19985;-83
2022/04/09 09:56:41;;;;;;;;;;;;;;;12.05;61.84;98513.56;4461273;32;20076;-79
2022/04/09 09:59:12;;;;;;;;;;;;;;;12.09;62.02;98511.78;4462623;32;19995;-78
2022/04/09 10:01:41;;;;;;;;;;;;;;;11.95;62.36;98522.34;4137199;32;10004135;-81
2022/04/09 10:04:09;;;;;;;;;;;;;;;11.85;62.30;98525.91;4431526;32;20034;-78
2022/04/09 10:06:36;;;;;;;;;;;;;;;12.20;62.00;98532.44;4431033;32;20008;-82
2022/04/09 10:09:06;;;;;;;;;;;;;;;12.29;61.41;98537.53;4431625;32;20002;-75
2022/04/09 10:11:37;;;;;;;;;;;;;;;12.23;60.52;98532.41;4431606;32;20082;-82
2022/04/09 10:14:04;;;;;;;;;;;;;;;12.29;59.81;98547.91;4431031;32;20275;-77
2022/04/09 10:16:33;;;;;;;;;;;;;;;11.89;60.09;98537.94;4431639;32;19993;-80
2022/04/09 10:19:01;;;;;;;;;;;;;;;12.21;59.01;98539.34;4431229;32;20833;-76
2022/04/09 10:21:28;;;;;;;;;;;;;;;11.93;59.61;98549.16;4430307;32;20000;-75
2022/04/09 10:23:56;;;;;;;;;;;;;;;12.23;60.73;98555.75;4410940;32;20023;-80
2022/04/09 10:26:23;;;;;;;;;;;;;;;12.36;60.34;98554.72;4430616;32;19986;-83
2022/04/09 10:28:51;;;;;;;;;;;;;;;12.44;58.81;98547.69;4431725;32;19981;-85
2022/04/09 10:31:28;;;;;;;;;;;;;;;12.72;58.81;98553.41;4430811;32;20263;-80
2022/04/09 10:33:56;;;;;;;;;;;;;;;12.68;55.60;98545.69;4430872;32;19977;-77
2022/04/09 10:36:40;;;;;;;;;;;;;;;12.66;54.83;98552.63;4431349;32;19981;-77
2022/04/09 10:39:29;;;;;;;;;;;;;;;12.30;55.94;98560.00;4431306;32;19981;-77
2022/04/09 10:41:56;;;;;;;;;;;;;;;11.79;58.93;98551.84;4431051;32;20154;-79
2022/04/09 10:44:35;;;;;;;;;;;;;;;12.12;56.65;98567.97;4431643;32;20375;-81
2022/04/09 10:47:03;;;;;;;;;;;;;;;11.81;55.16;98591.59;4430493;32;20048;-85
2022/04/09 10:49:30;;;;;;;;;;;;;;;11.11;56.46;98593.84;4411668;32;19989;-76
2022/04/09 10:52:01;;;;;;;;;;;;;;;11.17;58.24;98608.50;4405059;32;19993;-82
2022/04/09 10:54:28;;;;;;;;;;;;;;;11.20;55.36;98599.81;4429726;32;20011;-85
2022/04/09 10:56:57;;;;;;;;;;;;;;;11.82;55.62;98598.50;4417255;32;20003;-75
2022/04/09 10:59:24;;;;;;;;;;;;;;;11.32;57.94;98604.94;4417279;32;19982;-82
2022/04/09 11:01:51;;;;;;;;;;;;;;;11.68;54.57;98615.88;4433275;32;20318;-81
2022/04/09 11:07:16;;;;;;;;;;;;;;;11.45;53.60;98609.16;4461735;32;20040;-80
2022/04/09 11:09:57;;;;;;;;;;;;;;;11.22;55.38;98611.06;4453461;32;20029;-84
2022/04/09 11:12:27;;;;;;;;;;;;;;;11.39;54.12;98614.37;4455971;32;19993;-84
2022/04/09 11:15:01;;;;;;;;;;;;;;;11.59;53.51;98624.62;4459077;32;19996;-84
2022/04/09 11:17:29;;;;;;;;;;;;;;;11.30;54.00;98661.09;4460285;32;20040;-80
2022/04/09 11:20:07;;;;;;;;;;;;;;;11.59;53.16;98653.97;4461415;32;20052;-79
2022/04/09 11:22:38;;;;;;;;;;;;;;;11.63;53.57;98672.97;4460491;32;20437;-90
2022/04/09 11:25:06;;;;;;;;;;;;;;;11.30;53.93;98676.63;4444369;32;19977;-77
2022/04/09 11:27:33;;;;;;;;;;;;;;;11.03;53.74;98688.84;4461354;32;20342;-76
2022/04/09 11:30:00;;;;;;;;;;;;;;;10.75;55.30;98698.44;4459019;32;20038;-81
2022/04/09 11:32:28;;;;;;;;;;;;;;;10.75;56.25;98710.50;4456272;32;20366;-80
2022/04/09 11:34:54;;;;;;;;;;;;;;;11.01;54.38;98726.84;4437784;32;20040;-81
2022/04/09 11:37:22;;;;;;;;;;;;;;;10.74;55.11;98711.38;4454068;32;19989;-76
2022/04/09 11:39:49;;;;;;;;;;;;;;;11.14;54.39;98712.97;4456291;32;20440;-75
2022/04/09 11:42:16;;;;;;;;;;;;;;;11.04;53.38;98700.94;4440498;32;19991;-75
2022/04/09 11:44:49;;;;;;;;;;;;;;;11.11;54.36;98712.97;4451395;32;19973;-75
2022/04/09 11:47:17;;;;;;;;;;;;;;;11.03;54.56;98709.56;4450407;32;20003;-79
2022/04/09 11:49:45;;;;;;;;;;;;;;;11.09;53.82;98730.25;4446115;32;20018;-84
2022/04/09 11:52:12;;;;;;;;;;;;;;;11.17;53.33;98728.50;4444668;32;19981;-86
2022/04/09 11:54:39;;;;;;;;;;;;;;;11.62;50.95;98757.63;4460706;32;19972;-81
2022/04/09 11:57:11;;;;;;;;;;;;;;;11.49;51.50;98760.31;4461843;32;20022;-79
2022/04/09 11:59:38;;;;;;;;;;;;;;;10.64;54.13;98758.00;4461819;32;19997;-75
2022/04/09 12:02:15;;;;;;;;;;;;;;;10.78;52.34;98760.53;4460938;32;20035;-75
2022/04/09 12:04:43;;;;;;;;;;;;;;;10.87;53.92;98764.84;4461345;32;20425;-78
2022/04/09 12:07:09;;;;;;;;;;;;;;;11.02;51.58;98759.63;4460863;32;19965;-76
2022/04/09 12:09:36;;;;;;;;;;;;;;;10.81;51.69;98786.41;4458860;32;19985;-84
2022/04/09 12:12:04;;;;;;;;;;;;;;;11.06;51.75;98776.88;4460994;32;19980;-80
2022/04/09 12:14:30;;;;;;;;;;;;;;;11.04;51.72;98799.34;4456950;32;20053;-81
2022/04/09 12:17:07;;;;;;;;;;;;;;;11.71;48.82;98793.03;4455385;32;19978;-77
2022/04/09 12:19:35;;;;;;;;;;;;;;;11.54;50.10;98800.84;4451749;32;19981;-80
2022/04/09 12:22:14;;;;;;;;;;;;;;;11.55;48.60;98807.78;4452614;32;19997;-79
2022/04/09 12:24:45;;;;;;;;;;;;;;;11.37;48.85;98807.84;4453804;32;19992;-77
2022/04/09 12:27:12;;;;;;;;;;;;;;;11.04;48.70;98814.88;4453634;32;20005;-81
2022/04/09 12:29:50;;;;;;;;;;;;;;;10.84;50.32;98796.78;4430171;32;20527;-83
2022/04/09 12:32:19;;;;;;;;;;;;;;;11.17;48.00;98815.72;4413359;32;20039;-81
2022/04/09 12:34:52;;;;;;;;;;;;;;;11.12;48.23;98807.94;4413074;32;20752;-77
2022/04/09 12:37:20;;;;;;;;;;;;;;;10.89;49.84;98801.97;4413830;32;20621;-81
2022/04/09 12:39:49;;;;;;;;;;;;;;;10.62;50.15;98790.75;4427537;32;20009;-79
2022/04/09 12:42:16;;;;;;;;;;;;;;;10.52;50.00;98778.69;4432172;32;19989;-75
2022/04/09 12:44:43;;;;;;;;;;;;;;;10.73;48.43;98783.00;4445462;32;20001;-74
2022/04/09 12:47:10;;;;;;;;;;;;;;;11.01;48.16;98763.09;4422362;32;19984;-74
2022/04/09 12:49:37;;;;;;;;;;;;;;;11.01;48.22;98777.75;4446492;32;20107;-75
2022/04/09 12:52:05;;;;;;;;;;;;;;;10.91;50.54;98771.72;4445570;32;20001;-80